To NAV CANADA Home Page Login to a new session Search on AWWS site Feedback and Comments Disclaimer Vers la page française équivalente Tips FAQ What's new on the site To the Forecasts and Observations / NOTAM section To "File a Flight Plan" website Publications and other links Update of the User's profile FIC Telephone Numbers My Weather Data Folder Route Weather Data Regional Weather Data Local Weather Data To the Forecasts and Observations / NOTAM section
Request Generated 04/18/2015 at 08:46:14 UTC . Weather information available at that time is displayed.

METAR/TAF

KELOWNA/BC    (show WxCam)

METAR CYLW 180800Z AUTO VRB02KT 9SM CLR 02/M02 A3026 RMK SLP258=
METAR CYLW 180700Z AUTO 00000KT 9SM CLR 06/M00 A3024 RMK SLP246=
METAR CYLW 180600Z AUTO 01003KT 9SM CLR 06/00 A3020 RMK SLP235=

TAF CYLW 180638Z 1807/1819 VRB03KT P6SM FEW080
RMK FCST BASED ON AUTO OBS. NXT FCST BY 181300Z=
Your time UTC time
Weather data provided by Environment Canada and NAV CANADA